Timeline UpdatesTrip UpdatesNews PostsPvt PostsTravel TipsAdmin PostsConv PostsFollowed PostsChat RequestsBlog PostsPNR Posts

Disclaimer
Search
 
 
Fri Jul 25, 2014 12:15:36 ISTHomeTrainsΣChainsAtlasPNRForumGalleryNewsFAQTripsMembersLoginFeedback
No Recent News for this Train
Other Trains in the News **new
Latest...
Tr.No.17405 Tirupati-Adilabad Krishna Express is cancelled o­n 26.04.2014
Sat Apr 26, 2014 (03:18PM)
⇐ Return Journey: Train# 17406

17405/Krishna Express

Jul 17 2013 (10:50PM)
Change Departure Station:
Change Arrival Station:
Post a Train Travel TipPost a Train Travel Tip **new
Post a Comment/Question/Picture/VideoPost a Comment/Question/Picture/Video
Inaugural Run
Wed Oct 02, 1974
Pantry/Catering
✕ NO Pantry Car
✓ Catering Avbl
Loco/Rake Reversals
MUE/Mudkhed Junction (4); SC/Secunderabad Junction (10);
RSA - Rake Sharing
17405/17406/17409/17410 has RSA.
Rake/Coach Composition
LOCO-SLR-UR-UR-UR-UR-UR-B1-C1-S1-S2-D1-D2-D3-D4-D5-D6-UR-UR-SLR
Loco
TPTY - SC: LGD WAP4/7. SC - ADB: KZJ WDG-3A.
News    PNR    Forum    Time-Table    Availability    Fare Chart    Map    Arr/Dep History    Trips    Gallery    ΣChains    X/O    Timeline    
Travel Time: 2h 33m    6 halts    Distance: 84 km    Avg Speed: 32 km/hr
Type: Mail/Express
Zone: SCR/South Central
Departs @ 18:07
Platform# 1
SMTWTFS
Jangaon/ZN 
Arrives @ 20:40
Platform# 6
SMTWTFS
Secunderabad Junction/SC 

6 halts. 11 intermediate Stations between Jangaon and Secunderabad Junction

Show ALL intermediate Stations  

#CodeStation NameX/OArrivesAvgDepartsAvgHaltPFDay#KmSpeedElevZoneAddress
1TPTYTirupati Main (5)  -05:25-11-652.840150mSCRChittoor Distt, Andhra Pradesh
2RURenigunta Junction (5)X  05:40-05:42-2m--1-642.963113mSCRChittoor District, Andhra Pradesh
3KHTSri Kalahasti (2)  06:04-06:05-1m21-619.88268mSCRChittoor District, Andhra Pradesh
4VKIVenkatagiri (3)  06:23-06:24-1m11-595.37677mSCRNellore District, Andhra Pradesh
5VDDVendodu (2)X  06:37-06:38-1m--1-578.81955mSCRNellore, Andhra Pradesh
6GDRGudur Junction (3)X  07:40-07:42-2m21-559.59419mSCRGudur, Andhra Pradesh
7VDEVedayapalem (2)X  08:02-08:03-1m11-528.37327mSCRNellore, Andhra Pradesh
8NLRNellore (4)  08:09-08:11-2m21-521.17921mSCRNellore, Andhra Pradesh
9BTTRBitragunta (2)  08:37-08:38-1m11-486.87015mSCRBitragunta, Andhra Pradesh
10KVZKavali (4)X  08:52-08:53-1m31-470.39421mSCRKavali, Andhra Pradesh
11SKMSingarayakonda (3)X  09:17-09:18-1m11-432.57226mSCRSingarayakonda, Andhra Pradesh
12TNRTanguturu (2)X  09:26-09:27-1m--1-422.93710mSCRTanguturu, Andhra Pradesh
13OGLOngole (3)  09:57-09:58-1m11-404.36412mSCROngole, Andhra Pradesh
14ANBAmmanabrolu (3)O  10:12-10:13-1m--1-389.47716mSCRAmmanabrolu, Andhra Pradesh
15CJMChinnaganjam (3)XO  10:24-10:25-1m--1-375.3839mSCRChinna Ganjam, Andhra Pradesh
16VTMVetapalem (3)XO  10:34-10:35-1m--1-362.8798mSCRVetapalem, Andhra Pradesh
17CLXChirala (4)  10:41-10:42-1m--1-355.0828mSCRChirala, Andhra Pradesh
18BPPBapatla (3)  10:53-10:54-1m--1-339.94610mSCRBapatla, Andhra Pradesh
19NDONidubrolu (3)X  11:21-11:22-1m--1-319.3519mSCRNidubrolu, Andhra Pradesh
20TELTenali Junction (5)  11:48-11:50-2m41-297.36516mSCRTel: 08644-227834, Andhra Pradesh
21DIGDuggirala (3)  11:59-12:00-1m--1-287.68316mSCRDuggirala, Andhra Pradesh
22PVDPeddavadiapudi (3)XO  12:07-12:08-1m--1-277.91120mSCRKL University to NH 5, Andhra Pradesh
23BZAVijayawada Junction (10)X  13:15-13:30-15m101-266.04224mSCRVijayawada 520001, Andhra Pradesh
24KIKondapalli (2)  13:52-13:53-1m11-250.56735mSCRKondapalli, Andhra Pradesh
25YPErrupalem (2)X  14:15-14:16-1m--1-225.97757mSCRKhammam Dist., Telangana
26MDRMadhira (2)X  14:28-14:29-1m21-210.58561mSCRKhammam Dist., Telangana
27BKLBona Kalu (2)  14:41-14:42-1m21-193.513997mSCRKhammam Dist., Telangana
28KMTKhammam (2)  14:54-14:56-2m21-165.749118mSCRKhammam 507001, Telangana
29DKJDornakal Junction (3)X  15:24-15:25-1m11-142.657153mSCRWarangal District, Telangana
30GLAGarla (2)  15:30-15:31-1m21-137.974156mSCRKhammam Dist., Telangana
31MABDMahbubabad (2)  15:47-15:48-1m21-118.281200mSCRWarangal Dist., Telangana
32KDMKesamudram (2)  15:59-16:00-1m21-103.377223mSCRWarangal Dist., Telangana
33NKDNekonda (2)  16:12-16:13-1m21-87.842236mSCRWarangal Dist., Telangana
34WLWarangal (3)  16:55-16:57-2m31-58.129271mSCRWarangal., Telangana
35KZJKazipet Junction (3)X  17:18-17:20-2m31-47.957292mSCRWarangal Dist., Telangana
36GNPGhanpur (2)X  17:41-17:42-1m11-28.167344mSCRWarangal Dist. / Enq Ph : 08711 220231, Telangana
37RGPRaghunathpalli (2)O  17:57-17:58-1m11-11.385357mSCRWarangal Dist., Telangana
38ZN»Jangaon (2)»  18:06-18:07-1m110.055380mSCRWarangal Dist., Telangana
39PBPPembarti (2)  18:13-18:14-1m115.564382mSCRWarangal Dist., Telangana
40ALERAler (2)X  18:23-18:24-1m1115.040366mSCRNalgonda Dist., Telangana
41RAGRaigir (2)  18:48-18:49-1m1130.865415mSCRNalgonda, Telangana
42BGBhongir (3)X  18:55-18:56-1m2137.370455mSCRNalgonda Dist., Telangana
43CHZCharlapalli (2)X  19:25-19:26-1m1171.344523mSCRRangareddy Dist., Telangana
44MLYMoula Ali (2)O  19:35-19:36-1m2178.05520mSCRSecunderabad, Telangana
45SC•Secunderabad Junction (10)•XO20:40-21:10-30m6183.715539mSCRSecunderabad 500003, Telangana
46MJFMalkajgiri (3)  21:24-21:25-1m3187.138535mSCRSecunderabad, Telangana
47BMOBolarum (3)  21:41-21:42-1m2197.375597mSCRSecunderabad, Telangana
48MZLMirzapalli (1)  22:29-22:30-1m11155.981530mSCRMedak Dist., Telangana
49AKEAkanapet  22:38-22:39-1m--1166.773566mSCRNizamabad Dist, Telangana
50KMCKamareddi (3)  23:00-23:02-2m--1192.553528mSCRNizamabad Dist., Telangana
51NZBNizamabad (3)  00:01-00:05-4m12244.370384mSCRNizamabad, Telangana
52BSXBasar (2)  00:30-00:32-2m12273.766358mSCRDist Adilabad, Telangana
53DABDharmabad (2)  00:41-00:42-1m22283.571354mSCRDegaon, Maharashtra
54UMRIUmri (1)XO  01:07-01:08-1m12313.014381mSCRHuzur Sahib Nanded, Maharashtra
55MUEMudkhed Junction (4)X02:30-02:40-10m12332.567378mSCRMudkhed, Maharashtra
56BOKRBhokar  02:59-03:00-1m12353.656460mSCRBhokar, Maharashtra
57HEMHimayatnagar  03:39-03:40-1m--2389.867398mSCRNanded, Maharashtra
58SHSKSahasrakund  03:54-03:55-1m--2405.375402mSCRNanded, Maharashtra
59BHBKBodhadi Bujrug  04:19-04:20-1m--2435.463357mSCRKinwat, Maharashtra
60KNVTKinwat (2)X  04:34-04:35-1m12450.127319mSCRKinwat, Maharashtra
61ADBAdilabad (3)  06:15--12495.4-248mSCRAdilabad, Telangana
Scroll to Top
Scroll to Bottom